Hoytville, Ohio
Current Conditions -  °F | °C
As of 8:53 AM on Friday 24 Oct 2014 (Local Time) from KFDY Reporting Station
Haze Haze  
Wind Chill: 35°   Ceiling: Unl
Heat Index: 39°   Visibility: 4mi
Dew Point: 37°   Wind: 6mph
Humidity: 93%   Direction: 200°SSW
Pressure: 30.1"   Gusts: NA
Location:  41.19°N, 83.78°W
Report Text: KFDY 241253Z AUTO 20005KT 4SM BR CLR 04/03 A3010 RMK AO2 SLP194 T00390028
Loading
Personal Weather Stations






























Interactive Weather Map New forecast layout! Learn more

10-Day Weather Forecast

Advertisements
Track Severe Weather on mobile